Time;durP1;ratioP1;P1;durP2;ratioP2;P2;SDS_P1;SDS_P2;PMS_P1;PMS_P2;Temp;Humidity;BMP_temperature;BMP_pressure;BME280_temperature;BME280_humidity;BME280_pressure;Samples;Min_cycle;Max_cycle;Signal;HPM_P1;HPM_P2
2023/08/31 00:02:06;;;;;;;4.00;3.60;;;17.20;99.90;;;;;;9567116;23;20197;-91
2023/08/31 00:05:52;;;;;;;3.17;2.92;;;17.10;99.90;;;;;;9591937;23;20160;-89
2023/08/31 00:09:38;;;;;;;3.88;3.30;;;17.10;99.90;;;;;;9565410;23;20247;-89
2023/08/31 00:13:24;;;;;;;3.60;3.30;;;17.00;99.90;;;;;;9566498;23;20213;-88
2023/08/31 00:17:10;;;;;;;4.20;3.50;;;17.00;99.90;;;;;;9567031;23;20191;-91
2023/08/31 00:20:55;;;;;;;3.47;2.90;;;17.00;99.90;;;;;;9567311;23;20622;-90
2023/08/31 00:24:42;;;;;;;4.00;3.50;;;16.90;99.90;;;;;;9591952;23;20189;-88
2023/08/31 00:28:27;;;;;;;5.05;3.53;;;16.80;99.90;;;;;;9566679;23;20167;-89
2023/08/31 00:32:13;;;;;;;4.13;3.65;;;16.90;99.90;;;;;;9566700;23;20207;-90
2023/08/31 00:36:01;;;;;;;4.07;3.20;;;16.90;99.90;;;;;;9567505;23;20199;-90
2023/08/31 00:39:47;;;;;;;3.60;3.30;;;16.80;99.90;;;;;;9567879;23;20641;-90
2023/08/31 00:43:33;;;;;;;3.60;3.30;;;16.80;99.90;;;;;;9568319;23;20182;-89
2023/08/31 00:47:19;;;;;;;5.68;3.22;;;16.70;99.90;;;;;;9593970;23;20614;-90
2023/08/31 00:51:06;;;;;;;3.67;3.28;;;16.70;99.90;;;;;;9569410;23;20222;-90
2023/08/31 00:54:54;;;;;;;4.20;3.70;;;16.60;99.90;;;;;;9567841;23;20198;-89
2023/08/31 00:58:40;;;;;;;9.05;3.85;;;16.40;99.90;;;;;;9567284;23;20523;-88
2023/08/31 01:02:29;;;;;;;3.45;3.13;;;16.40;99.90;;;;;;9567642;23;20208;-90
2023/08/31 01:06:33;;;;;;;3.60;3.30;;;16.30;99.90;;;;;;9567101;23;20162;-89
2023/08/31 01:10:39;;;;;;;3.88;3.47;;;16.30;99.90;;;;;;9567303;23;20166;-89
2023/08/31 01:14:32;;;;;;;3.22;2.90;;;16.40;99.90;;;;;;9567663;23;20658;-89
2023/08/31 01:18:20;;;;;;;5.78;2.90;;;16.30;99.90;;;;;;9566938;23;20163;-89
2023/08/31 01:22:11;;;;;;;3.10;2.80;;;16.40;99.90;;;;;;9567230;23;20190;-89
2023/08/31 01:25:58;;;;;;;2.80;2.60;;;16.50;99.90;;;;;;9594530;23;20143;-89
2023/08/31 01:29:44;;;;;;;4.32;2.80;;;16.50;99.90;;;;;;9593288;23;20150;-89
2023/08/31 01:33:29;;;;;;;3.08;2.55;;;16.60;99.90;;;;;;9568238;23;20713;-89
2023/08/31 01:37:21;;;;;;;2.55;2.35;;;16.60;99.90;;;;;;9567287;23;20201;-90
2023/08/31 01:41:10;;;;;;;5.22;2.47;;;16.60;99.90;;;;;;9567574;23;20221;-90
2023/08/31 01:44:58;;;;;;;3.05;2.63;;;16.60;99.90;;;;;;9567635;23;20258;-90
2023/08/31 01:48:44;;;;;;;2.95;2.65;;;16.60;99.90;;;;;;9567366;23;20634;-90
2023/08/31 01:52:30;;;;;;;3.70;2.42;;;16.60;99.90;;;;;;9567293;23;20524;-89
2023/08/31 01:56:16;;;;;;;6.00;2.35;;;16.60;99.90;;;;;;9567107;23;20608;-90
2023/08/31 02:00:03;;;;;;;2.80;2.20;;;16.50;99.90;;;;;;9566192;23;20158;-90
2023/08/31 02:03:48;;;;;;;6.45;2.20;;;16.50;99.90;;;;;;9566350;23;20270;-89
2023/08/31 02:07:34;;;;;;;2.42;2.22;;;16.40;99.90;;;;;;9565939;23;20205;-89
2023/08/31 02:11:20;;;;;;;2.17;1.98;;;16.10;99.90;;;;;;9566665;23;20178;-90
2023/08/31 02:15:07;;;;;;;2.13;1.92;;;16.00;99.90;;;;;;9567212;23;20710;-90
2023/08/31 02:18:53;;;;;;;4.00;1.98;;;16.00;99.90;;;;;;9566702;23;20174;-90
2023/08/31 02:22:39;;;;;;;2.28;2.08;;;16.00;99.90;;;;;;9565643;23;20198;-88
2023/08/31 02:26:24;;;;;;;2.55;1.90;;;16.00;99.90;;;;;;9566722;23;20170;-90
2023/08/31 02:30:10;;;;;;;2.00;1.80;;;15.90;99.90;;;;;;9566669;23;20167;-89
2023/08/31 02:33:56;;;;;;;2.55;2.08;;;15.90;99.90;;;;;;9566798;23;20777;-90
2023/08/31 02:37:41;;;;;;;2.67;2.17;;;15.90;99.90;;;;;;9567098;23;20249;-90
2023/08/31 02:41:27;;;;;;;2.50;2.20;;;16.00;99.90;;;;;;9566609;23;20612;-90
2023/08/31 02:45:13;;;;;;;2.60;2.13;;;16.00;99.90;;;;;;9566885;23;20845;-89
2023/08/31 02:48:59;;;;;;;2.35;2.15;;;16.00;99.90;;;;;;9593024;23;20560;-90
2023/08/31 02:52:44;;;;;;;2.65;1.90;;;16.00;99.90;;;;;;9566781;23;20186;-89
2023/08/31 02:56:30;;;;;;;2.13;1.80;;;15.90;99.90;;;;;;9566168;23;20191;-90
2023/08/31 03:00:16;;;;;;;3.47;1.95;;;15.90;99.90;;;;;;9567336;23;20185;-90
2023/08/31 03:04:05;;;;;;;2.63;2.30;;;16.00;99.90;;;;;;9566050;23;20253;-89
2023/08/31 03:07:51;;;;;;;2.65;1.85;;;15.90;99.90;;;;;;9566393;23;20151;-90
2023/08/31 03:11:36;;;;;;;2.20;2.00;;;15.90;99.90;;;;;;9565589;23;20598;-88
2023/08/31 03:15:23;;;;;;;2.03;1.67;;;16.00;99.90;;;;;;9564251;23;20186;-88
2023/08/31 03:19:08;;;;;;;2.53;1.70;;;15.90;99.90;;;;;;9563966;23;20231;-88
2023/08/31 03:22:54;;;;;;;1.77;1.65;;;15.90;99.90;;;;;;9589825;23;20210;-89
2023/08/31 03:26:40;;;;;;;2.00;1.70;;;15.90;99.90;;;;;;9563871;23;20159;-90
2023/08/31 03:30:25;;;;;;;4.88;1.65;;;15.90;99.90;;;;;;9564429;23;20158;-90
2023/08/31 03:34:11;;;;;;;1.40;1.30;;;15.90;99.90;;;;;;9590394;23;20182;-88
2023/08/31 03:37:56;;;;;;;2.13;1.52;;;15.80;99.90;;;;;;9563280;23;20190;-91
2023/08/31 03:41:42;;;;;;;1.80;1.55;;;15.70;99.90;;;;;;9563024;23;20213;-89
2023/08/31 03:45:28;;;;;;;3.25;1.40;;;15.70;99.90;;;;;;9563519;23;20162;-89
2023/08/31 03:49:13;;;;;;;2.35;1.10;;;15.70;99.90;;;;;;9562784;23;20163;-88
2023/08/31 03:52:59;;;;;;;1.67;1.40;;;15.50;99.90;;;;;;9563689;23;21012;-88
2023/08/31 03:56:44;;;;;;;1.95;1.30;;;15.60;99.90;;;;;;9563296;23;20271;-89
2023/08/31 04:00:30;;;;;;;1.30;1.20;;;15.60;99.90;;;;;;9561450;23;20155;-89
2023/08/31 04:04:16;;;;;;;2.00;1.65;;;15.70;99.90;;;;;;9565450;23;20178;-88
2023/08/31 04:08:02;;;;;;;2.40;1.73;;;15.70;99.90;;;;;;9565549;23;20298;-90
2023/08/31 04:11:48;;;;;;;2.38;1.20;;;15.70;99.90;;;;;;9564638;23;20765;-88
2023/08/31 04:15:34;;;;;;;1.98;1.20;;;15.80;99.90;;;;;;9590412;23;20285;-87
2023/08/31 04:19:19;;;;;;;1.40;1.30;;;15.70;99.90;;;;;;9563573;23;20162;-87
2023/08/31 04:23:15;;;;;;;2.88;1.23;;;15.70;99.90;;;;;;9563218;23;20642;-88
2023/08/31 04:27:01;;;;;;;2.00;1.40;;;15.60;99.90;;;;;;9567351;23;20151;-87
2023/08/31 04:30:47;;;;;;;1.67;1.38;;;15.70;99.90;;;;;;9565470;23;20201;-88
2023/08/31 04:34:32;;;;;;;1.77;1.30;;;15.70;99.90;;;;;;9563919;23;20793;-88
2023/08/31 04:38:18;;;;;;;1.45;1.20;;;15.70;99.90;;;;;;9565282;23;20189;-88
2023/08/31 04:42:04;;;;;;;4.35;1.40;;;15.70;99.90;;;;;;9566936;23;20190;-88
2023/08/31 04:45:51;;;;;;;1.77;1.35;;;15.70;99.90;;;;;;9595515;23;20155;-87
2023/08/31 04:49:37;;;;;;;2.50;1.40;;;15.70;99.90;;;;;;9566811;23;20241;-88
2023/08/31 04:53:23;;;;;;;2.10;1.48;;;15.60;99.90;;;;;;9568402;23;20182;-90
2023/08/31 04:57:10;;;;;;;2.10;1.52;;;15.60;99.90;;;;;;9570274;23;20190;-88
2023/08/31 05:00:57;;;;;;;3.95;2.13;;;15.50;99.90;;;;;;9596736;23;20151;-89
2023/08/31 05:04:43;;;;;;;2.97;1.95;;;15.40;99.90;;;;;;9569591;23;20183;-88
2023/08/31 05:08:28;;;;;;;3.70;1.75;;;15.30;99.90;;;;;;9570373;23;20159;-88
2023/08/31 05:12:14;;;;;;;2.20;2.00;;;15.20;99.90;;;;;;9569348;23;20225;-88
2023/08/31 05:16:00;;;;;;;1.98;1.60;;;15.20;99.90;;;;;;9569757;23;20186;-88
2023/08/31 05:19:47;;;;;;;2.45;1.88;;;15.20;99.90;;;;;;9567726;23;20166;-89
2023/08/31 05:23:32;;;;;;;2.85;1.70;;;15.20;99.90;;;;;;9568528;23;20198;-87
2023/08/31 05:27:19;;;;;;;2.50;2.00;;;15.20;99.90;;;;;;9570952;23;20167;-88
2023/08/31 05:31:05;;;;;;;2.53;1.73;;;15.20;99.90;;;;;;9570452;23;20147;-88
2023/08/31 05:34:51;;;;;;;1.85;1.67;;;15.20;99.90;;;;;;9570960;23;20217;-89
2023/08/31 05:38:36;;;;;;;4.72;2.25;;;15.10;99.90;;;;;;9571156;23;20143;-87
2023/08/31 05:42:23;;;;;;;3.33;2.08;;;15.10;99.90;;;;;;9569500;23;20329;-88
2023/08/31 05:46:10;;;;;;;3.90;2.58;;;15.00;99.90;;;;;;9569901;23;20155;-87
2023/08/31 05:49:58;;;;;;;5.00;2.22;;;14.90;99.90;;;;;;9568432;23;20151;-88
2023/08/31 05:53:44;;;;;;;2.58;2.20;;;14.90;99.90;;;;;;9566975;23;20194;-87
2023/08/31 05:57:30;;;;;;;4.18;2.60;;;15.00;99.90;;;;;;9567337;23;20179;-88
2023/08/31 06:01:15;;;;;;;2.40;2.20;;;14.90;99.90;;;;;;9568374;23;20163;-88
2023/08/31 06:05:03;;;;;;;4.80;2.40;;;14.90;99.90;;;;;;9568262;23;20193;-88
2023/08/31 06:08:49;;;;;;;8.63;2.83;;;15.00;99.90;;;;;;9573376;22;20209;-89
2023/08/31 06:12:35;;;;;;;4.35;2.90;;;14.90;99.90;;;;;;9617207;23;20158;-90
2023/08/31 06:16:23;;;;;;;10.35;3.25;;;14.90;99.90;;;;;;9620055;23;20193;-90
2023/08/31 06:20:10;;;;;;;3.53;2.78;;;14.90;99.90;;;;;;9654746;23;20201;-91
2023/08/31 06:23:55;;;;;;;3.10;2.72;;;14.90;99.90;;;;;;9663159;23;20165;-90
2023/08/31 06:27:42;;;;;;;4.65;2.72;;;14.90;99.90;;;;;;9663077;22;20196;-89
2023/08/31 06:31:28;;;;;;;3.85;2.78;;;14.90;99.90;;;;;;9663627;23;20165;-90
2023/08/31 06:35:19;;;;;;;5.15;2.80;;;14.80;99.90;;;;;;9662175;23;20182;-91
2023/08/31 06:39:06;;;;;;;3.45;2.75;;;14.90;99.90;;;;;;9663121;22;20177;-90
2023/08/31 06:42:52;;;;;;;4.63;2.80;;;14.90;99.90;;;;;;9663195;23;20150;-91
2023/08/31 06:46:38;;;;;;;3.17;2.45;;;14.90;99.90;;;;;;9662978;23;20157;-90
2023/08/31 06:50:23;;;;;;;6.57;3.30;;;15.00;99.90;;;;;;9638043;23;20192;-89
2023/08/31 06:54:09;;;;;;;5.15;3.55;;;14.90;99.90;;;;;;9664064;23;20168;-93
2023/08/31 06:57:58;;;;;;;4.72;3.20;;;15.00;99.90;;;;;;9662810;22;20192;-90
2023/08/31 07:01:44;;;;;;;4.95;3.38;;;15.10;99.90;;;;;;9682580;22;20154;-94
2023/08/31 07:05:35;;;;;;;7.25;3.17;;;15.00;99.90;;;;;;9667000;23;20244;-91
2023/08/31 07:09:20;;;;;;;6.27;3.50;;;14.90;99.90;;;;;;9661300;23;20189;-91
2023/08/31 07:13:06;;;;;;;5.67;3.53;;;14.90;99.90;;;;;;9660219;23;20161;-90
2023/08/31 07:16:51;;;;;;;5.10;3.95;;;14.80;99.90;;;;;;9660352;23;20185;-91
2023/08/31 07:20:37;;;;;;;5.80;3.80;;;14.80;99.90;;;;;;9660276;23;20170;-90
2023/08/31 07:24:23;;;;;;;6.37;3.70;;;14.70;99.90;;;;;;9660316;23;20248;-90
2023/08/31 07:28:09;;;;;;;7.00;3.72;;;14.80;99.90;;;;;;9660165;22;20177;-90
2023/08/31 07:31:55;;;;;;;7.20;3.50;;;14.80;99.90;;;;;;9660172;23;20252;-90
2023/08/31 07:35:40;;;;;;;4.45;3.25;;;14.90;99.90;;;;;;9660044;23;20186;-90
2023/08/31 07:39:27;;;;;;;5.70;3.43;;;15.00;99.90;;;;;;9660149;23;20181;-91
2023/08/31 07:43:13;;;;;;;7.13;3.60;;;15.20;99.90;;;;;;9659958;23;20548;-90
2023/08/31 07:46:59;;;;;;;5.07;3.10;;;15.30;99.90;;;;;;9659960;23;20561;-90
2023/08/31 07:50:45;;;;;;;4.68;3.10;;;15.40;99.90;;;;;;9660010;23;20238;-91
2023/08/31 07:54:31;;;;;;;4.03;2.50;;;15.50;99.90;;;;;;9659641;23;20613;-91
2023/08/31 07:58:16;;;;;;;4.57;2.90;;;15.40;99.90;;;;;;9659881;22;20516;-90
2023/08/31 08:02:02;;;;;;;3.50;2.80;;;15.50;99.90;;;;;;9660040;23;20146;-90
2023/08/31 08:05:48;;;;;;;6.40;3.30;;;15.70;99.90;;;;;;9659583;23;20165;-90
2023/08/31 08:09:35;;;;;;;5.35;3.17;;;15.60;99.90;;;;;;9659331;23;20645;-91
2023/08/31 08:13:20;;;;;;;4.45;2.47;;;15.50;99.90;;;;;;9660697;23;20162;-91
2023/08/31 08:17:06;;;;;;;4.97;2.80;;;15.50;99.90;;;;;;9659909;23;20184;-91
2023/08/31 08:20:51;;;;;;;3.67;2.70;;;15.60;99.90;;;;;;9663329;23;20820;-90
2023/08/31 08:24:37;;;;;;;4.10;2.47;;;15.80;99.90;;;;;;9663016;23;20168;-90
2023/08/31 08:28:23;;;;;;;2.85;2.13;;;16.00;99.90;;;;;;9663026;22;20177;-91
2023/08/31 08:32:08;;;;;;;7.73;3.20;;;16.00;99.90;;;;;;9663293;23;20189;-90
2023/08/31 08:35:56;;;;;;;3.90;2.27;;;16.00;99.90;;;;;;9662940;23;20185;-90
2023/08/31 08:39:42;;;;;;;5.13;2.43;;;15.90;99.90;;;;;;9688105;23;20200;-91
2023/08/31 08:43:28;;;;;;;3.30;2.43;;;16.20;99.90;;;;;;9663017;23;20158;-91
2023/08/31 08:47:15;;;;;;;3.78;2.60;;;16.10;99.90;;;;;;9663056;23;20193;-88
2023/08/31 08:51:03;;;;;;;6.50;2.60;;;16.10;99.90;;;;;;9662487;23;20181;-90
2023/08/31 08:54:50;;;;;;;3.27;2.00;;;16.20;99.90;;;;;;9662822;23;20169;-90
2023/08/31 08:58:36;;;;;;;5.03;2.37;;;16.40;99.90;;;;;;9662156;22;20178;-90
2023/08/31 09:02:22;;;;;;;4.83;2.00;;;16.50;99.90;;;;;;9662637;23;20169;-90
2023/08/31 09:06:08;;;;;;;3.70;2.20;;;16.70;99.90;;;;;;9662678;23;20223;-91
2023/08/31 09:09:54;;;;;;;4.27;2.07;;;16.70;99.90;;;;;;9662674;23;20699;-90
2023/08/31 09:13:40;;;;;;;4.00;2.40;;;16.60;99.90;;;;;;9662548;23;20532;-90
2023/08/31 09:17:28;;;;;;;4.67;2.37;;;16.70;99.90;;;;;;9662196;22;20192;-91
2023/08/31 09:21:14;;;;;;;3.50;2.13;;;16.70;99.90;;;;;;9662380;23;20180;-90
2023/08/31 09:24:59;;;;;;;3.00;2.10;;;16.80;99.90;;;;;;9661962;23;20612;-90
2023/08/31 09:28:45;;;;;;;4.32;2.28;;;16.80;99.90;;;;;;9662195;22;20177;-90
2023/08/31 09:32:31;;;;;;;7.38;2.22;;;16.70;99.90;;;;;;9663469;23;20153;-93
2023/08/31 09:36:18;;;;;;;5.00;1.90;;;16.70;99.90;;;;;;9706715;22;20179;-96
2023/08/31 09:40:04;;;;;;;3.13;1.92;;;16.80;99.90;;;;;;9702950;22;20637;-91
2023/08/31 09:43:50;;;;;;;5.47;1.73;;;16.80;99.90;;;;;;9665921;23;20169;-90
2023/08/31 09:47:36;;;;;;;2.67;1.80;;;16.80;99.90;;;;;;9662809;22;20214;-91
2023/08/31 09:51:24;;;;;;;3.78;1.67;;;16.90;99.90;;;;;;9661706;23;20453;-91
2023/08/31 09:55:09;;;;;;;3.05;2.03;;;17.00;99.90;;;;;;9662320;23;20192;-89
2023/08/31 09:58:55;;;;;;;2.42;1.95;;;17.00;99.90;;;;;;9662545;22;20177;-90
2023/08/31 10:02:49;;;;;;;3.33;1.95;;;16.90;99.90;;;;;;9662967;23;20157;-90
2023/08/31 10:06:38;;;;;;;3.42;2.40;;;17.00;99.90;;;;;;9662957;23;20189;-90
2023/08/31 10:10:25;;;;;;;4.57;2.20;;;17.00;99.90;;;;;;9662722;23;20243;-89
2023/08/31 10:14:13;;;;;;;4.18;2.28;;;17.00;99.90;;;;;;9683828;23;20157;-93
2023/08/31 10:18:00;;;;;;;3.95;2.08;;;17.00;99.90;;;;;;9701056;22;20361;-92
2023/08/31 10:21:46;;;;;;;3.30;2.30;;;17.00;99.90;;;;;;9700207;23;20223;-92
2023/08/31 10:25:50;;;;;;;5.75;2.60;;;17.20;99.90;;;;;;9683119;23;20161;-90
2023/08/31 10:29:35;;;;;;;6.75;2.55;;;17.30;99.90;;;;;;9660952;23;20606;-90
2023/08/31 10:33:22;;;;;;;10.82;2.45;;;17.20;99.90;;;;;;9661246;23;20165;-91
2023/08/31 10:37:21;;;;;;;5.63;2.33;;;17.20;99.90;;;;;;9623063;23;20220;-89
2023/08/31 10:41:06;;;;;;;6.68;2.38;;;17.30;99.90;;;;;;9617344;23;20185;-89
2023/08/31 10:44:52;;;;;;;3.35;2.28;;;17.30;99.90;;;;;;9617628;23;20228;-90
2023/08/31 10:49:14;;;;;;;4.68;2.00;;;17.40;99.90;;;;;;9627825;23;20566;-89
2023/08/31 10:53:08;;;;;;;5.32;2.10;;;17.40;99.90;;;;;;9633515;23;20512;-89
2023/08/31 10:56:57;;;;;;;2.35;1.73;;;17.40;99.90;;;;;;9614777;23;20199;-90
2023/08/31 11:00:53;;;;;;;3.38;1.95;;;17.50;99.90;;;;;;9614760;23;20165;-89
2023/08/31 11:05:03;;;;;;;2.60;1.42;;;17.70;99.90;;;;;;9616980;23;20267;-89
2023/08/31 11:08:54;;;;;;;4.10;1.80;;;17.90;98.90;;;;;;9616201;23;20158;-89
2023/08/31 11:12:41;;;;;;;4.10;1.33;;;18.00;99.40;;;;;;9616038;23;20150;-89
2023/08/31 11:16:30;;;;;;;1.73;1.10;;;18.00;96.40;;;;;;9615912;23;20186;-91
2023/08/31 11:20:23;;;;;;;2.35;1.30;;;17.90;96.10;;;;;;9616138;23;20659;-90
2023/08/31 11:24:09;;;;;;;2.30;1.30;;;17.90;95.90;;;;;;9615688;23;20288;-90
2023/08/31 11:28:14;;;;;;;2.10;1.38;;;17.80;95.40;;;;;;9615585;23;20166;-89
2023/08/31 11:32:00;;;;;;;5.95;1.38;;;17.70;94.70;;;;;;9615907;23;20154;-89
2023/08/31 11:35:49;;;;;;;2.63;1.00;;;17.50;99.30;;;;;;9615708;23;20244;-89
2023/08/31 11:39:36;;;;;;;2.22;0.95;;;17.10;99.90;;;;;;9615225;23;20608;-90
2023/08/31 11:43:23;;;;;;;2.70;1.33;;;16.80;99.90;;;;;;9615974;23;20162;-90
2023/08/31 11:47:19;;;;;;;5.38;1.70;;;16.80;99.90;;;;;;9642594;23;20180;-90
2023/08/31 11:51:05;;;;;;;5.18;1.48;;;16.80;99.90;;;;;;9616355;23;20612;-89
2023/08/31 11:54:53;;;;;;;2.30;1.30;;;16.70;99.90;;;;;;9615227;23;20527;-89
2023/08/31 11:58:42;;;;;;;1.25;1.05;;;16.70;99.90;;;;;;9669858;22;20142;-91
2023/08/31 12:02:28;;;;;;;1.67;1.20;;;16.80;99.90;;;;;;9626165;23;20169;-89
2023/08/31 12:06:20;;;;;;;1.85;1.00;;;16.60;99.90;;;;;;9613677;23;20186;-90
2023/08/31 12:10:07;;;;;;;2.03;1.40;;;16.50;99.90;;;;;;9614920;23;20664;-88
2023/08/31 12:13:53;;;;;;;3.40;1.48;;;16.70;99.90;;;;;;9615821;23;20162;-90
2023/08/31 12:17:39;;;;;;;4.00;1.35;;;16.90;99.90;;;;;;9612335;23;20344;-89
2023/08/31 12:21:25;;;;;;;2.05;1.23;;;17.00;99.90;;;;;;9614449;23;20586;-89
2023/08/31 12:25:20;;;;;;;1.90;1.08;;;17.20;99.90;;;;;;9616394;23;20548;-90
2023/08/31 12:29:06;;;;;;;3.47;1.20;;;17.30;99.90;;;;;;9614499;23;20162;-90
2023/08/31 12:32:52;;;;;;;1.25;1.15;;;17.50;99.90;;;;;;9615207;23;20168;-90
2023/08/31 12:36:40;;;;;;;1.60;1.30;;;17.50;99.90;;;;;;9615342;23;20252;-90
2023/08/31 12:40:25;;;;;;;1.95;1.30;;;17.50;99.90;;;;;;9615268;23;20157;-90
2023/08/31 12:44:11;;;;;;;1.33;1.05;;;17.50;99.90;;;;;;9616793;23;20186;-91
2023/08/31 12:47:57;;;;;;;2.75;1.40;;;17.60;99.90;;;;;;9615428;23;20173;-90
2023/08/31 12:51:46;;;;;;;3.88;1.45;;;17.60;99.90;;;;;;9615607;23;20166;-90
2023/08/31 12:55:31;;;;;;;1.55;1.30;;;17.60;99.90;;;;;;9616945;23;20286;-90
2023/08/31 12:59:17;;;;;;;2.88;1.27;;;17.60;99.90;;;;;;9616941;23;20158;-90
2023/08/31 13:03:03;;;;;;;1.75;1.17;;;17.70;99.90;;;;;;9615628;23;20236;-89
2023/08/31 13:06:49;;;;;;;3.30;1.17;;;17.60;99.90;;;;;;9617417;23;20186;-90
2023/08/31 13:10:35;;;;;;;2.05;1.23;;;17.50;99.90;;;;;;9619603;23;20165;-90
2023/08/31 13:14:20;;;;;;;1.83;1.27;;;17.50;99.90;;;;;;9618313;23;20166;-90
2023/08/31 13:18:06;;;;;;;2.90;1.02;;;17.60;99.90;;;;;;9618407;23;20194;-90
2023/08/31 13:21:52;;;;;;;3.42;1.25;;;17.60;99.90;;;;;;9617907;23;20154;-90
2023/08/31 13:25:39;;;;;;;2.80;1.40;;;17.70;99.90;;;;;;9618377;23;20575;-90
2023/08/31 13:29:26;;;;;;;1.25;1.13;;;17.80;99.90;;;;;;9623014;23;20217;-90
2023/08/31 13:33:12;;;;;;;1.40;1.30;;;17.90;99.90;;;;;;9635010;23;20181;-90
2023/08/31 13:36:58;;;;;;;1.92;1.30;;;18.00;99.90;;;;;;9620761;23;20236;-90
2023/08/31 13:40:43;;;;;;;1.75;1.25;;;18.00;99.90;;;;;;9618358;23;20170;-90
2023/08/31 13:44:30;;;;;;;1.70;1.27;;;18.00;99.90;;;;;;9626657;23;20170;-86
2023/08/31 13:48:15;;;;;;;3.00;1.40;;;18.00;99.90;;;;;;9675199;22;20551;-87
2023/08/31 13:52:01;;;;;;;3.95;1.45;;;18.00;99.90;;;;;;9620449;23;20166;-87
2023/08/31 13:55:47;;;;;;;1.52;1.30;;;18.10;99.90;;;;;;9619800;23;20201;-90
2023/08/31 13:59:32;;;;;;;1.70;1.13;;;18.10;99.40;;;;;;9620896;23;20158;-91
2023/08/31 14:03:18;;;;;;;3.55;1.40;;;18.20;99.10;;;;;;9619252;23;20162;-91
2023/08/31 14:07:03;;;;;;;2.17;1.15;;;18.20;98.40;;;;;;9643261;23;20645;-90
2023/08/31 14:10:49;;;;;;;2.85;1.17;;;18.30;98.60;;;;;;9619111;23;20478;-90
2023/08/31 14:14:35;;;;;;;2.65;1.30;;;18.40;98.10;;;;;;9617904;23;20181;-90
2023/08/31 14:18:31;;;;;;;3.60;1.20;;;18.50;97.80;;;;;;9618498;23;20268;-91
2023/08/31 14:22:18;;;;;;;4.80;1.30;;;18.50;98.70;;;;;;9618900;23;20158;-91
2023/08/31 14:26:04;;;;;;;2.47;1.10;;;18.50;98.50;;;;;;9618334;23;20618;-90
2023/08/31 14:29:49;;;;;;;8.77;2.20;;;18.40;98.90;;;;;;9616015;23;20600;-91
2023/08/31 14:33:36;;;;;;;5.43;1.67;;;18.40;99.90;;;;;;9616944;23;20153;-91
2023/08/31 14:37:21;;;;;;;3.13;1.95;;;18.40;99.90;;;;;;9623057;23;20194;-89
2023/08/31 14:41:07;;;;;;;1.95;1.52;;;18.30;99.90;;;;;;9673892;23;20181;-90
2023/08/31 14:44:54;;;;;;;2.75;1.20;;;18.30;99.90;;;;;;9636644;23;20732;-90
2023/08/31 14:48:39;;;;;;;1.63;1.42;;;18.30;99.90;;;;;;9618657;23;20601;-90
2023/08/31 14:52:25;;;;;;;3.17;1.80;;;18.30;99.90;;;;;;9618491;23;20359;-91
2023/08/31 14:56:11;;;;;;;1.48;1.30;;;18.10;99.90;;;;;;9618540;23;20192;-90
2023/08/31 14:59:58;;;;;;;2.17;1.63;;;18.10;99.90;;;;;;9617897;23;20158;-90
2023/08/31 15:03:44;;;;;;;2.78;1.92;;;18.20;99.90;;;;;;9620659;23;20249;-90
2023/08/31 15:07:37;;;;;;;3.28;1.50;;;18.20;99.90;;;;;;9618986;23;20178;-90
2023/08/31 15:11:22;;;;;;;4.10;1.80;;;18.20;99.90;;;;;;9619668;23;20504;-91
2023/08/31 15:15:29;;;;;;;2.92;1.85;;;18.20;99.90;;;;;;9622806;23;20188;-91
2023/08/31 15:19:14;;;;;;;2.42;1.80;;;18.20;99.90;;;;;;9617855;23;20320;-90
2023/08/31 15:23:00;;;;;;;4.85;1.90;;;18.30;99.90;;;;;;9616923;23;20166;-90
2023/08/31 15:26:46;;;;;;;3.08;1.45;;;18.30;99.90;;;;;;9622431;23;20208;-91
2023/08/31 15:30:33;;;;;;;3.00;1.52;;;18.30;99.90;;;;;;9627706;22;20186;-91
2023/08/31 15:34:19;;;;;;;2.88;1.70;;;18.40;99.90;;;;;;9646487;23;20177;-90
2023/08/31 15:38:05;;;;;;;4.20;1.50;;;18.50;99.90;;;;;;9615527;23;20548;-89
2023/08/31 15:41:50;;;;;;;1.63;1.42;;;18.50;99.90;;;;;;9642087;23;20185;-89
2023/08/31 15:45:36;;;;;;;2.53;1.60;;;18.50;99.90;;;;;;9614648;23;20189;-90
2023/08/31 15:49:21;;;;;;;3.47;1.38;;;18.50;99.90;;;;;;9618770;23;20269;-89
2023/08/31 15:53:10;;;;;;;2.30;1.30;;;18.50;99.90;;;;;;9617648;23;20225;-93
2023/08/31 15:56:56;;;;;;;2.83;1.58;;;18.50;99.90;;;;;;9614734;23;20663;-90
2023/08/31 16:00:43;;;;;;;1.67;1.55;;;18.50;99.90;;;;;;9614904;23;20509;-90
2023/08/31 16:04:30;;;;;;;2.45;1.50;;;18.50;99.90;;;;;;9616428;23;20185;-90
2023/08/31 16:08:15;;;;;;;2.13;1.58;;;18.40;99.90;;;;;;9616357;23;20501;-90
2023/08/31 16:12:04;;;;;;;5.93;2.40;;;18.30;99.90;;;;;;9616982;23;20172;-90
2023/08/31 16:15:51;;;;;;;5.30;1.50;;;18.40;99.90;;;;;;9626727;23;20200;-90
2023/08/31 16:19:37;;;;;;;2.47;1.60;;;18.50;99.90;;;;;;9624894;23;20172;-90
2023/08/31 16:23:24;;;;;;;2.53;1.70;;;18.50;99.90;;;;;;9642819;23;20150;-90
2023/08/31 16:27:11;;;;;;;6.13;1.92;;;18.50;99.90;;;;;;9616661;23;20205;-90
2023/08/31 16:31:06;;;;;;;2.78;1.48;;;18.50;99.90;;;;;;9616887;23;20166;-90
2023/08/31 16:34:55;;;;;;;1.48;1.17;;;18.60;99.90;;;;;;9611388;23;20195;-90
2023/08/31 16:38:42;;;;;;;2.70;1.30;;;18.60;99.90;;;;;;9593742;23;20700;-90
2023/08/31 16:42:28;;;;;;;2.50;1.73;;;18.60;99.90;;;;;;9596548;23;20307;-87
2023/08/31 16:46:13;;;;;;;2.10;1.90;;;18.60;99.90;;;;;;9617108;23;20204;-90
2023/08/31 16:49:59;;;;;;;3.22;1.92;;;18.60;99.90;;;;;;9617178;23;20172;-87
2023/08/31 16:53:57;;;;;;;2.35;1.90;;;18.70;99.90;;;;;;9644137;23;20142;-90
2023/08/31 16:57:42;;;;;;;2.25;1.60;;;18.60;99.90;;;;;;9617179;23;20658;-90
2023/08/31 17:01:32;;;;;;;1.83;1.38;;;18.40;99.90;;;;;;9644766;23;20746;-90
2023/08/31 17:05:19;;;;;;;2.55;1.40;;;18.10;99.90;;;;;;9618519;23;20178;-90
2023/08/31 17:09:07;;;;;;;2.42;1.30;;;17.90;99.90;;;;;;9618969;23;20154;-90
2023/08/31 17:12:53;;;;;;;5.75;1.50;;;17.90;99.90;;;;;;9659471;23;20173;-90
2023/08/31 17:16:39;;;;;;;2.50;1.38;;;18.00;99.90;;;;;;9617427;23;20190;-90
2023/08/31 17:20:30;;;;;;;1.88;1.25;;;17.90;99.90;;;;;;9617352;23;20166;-90
2023/08/31 17:24:28;;;;;;;3.85;1.73;;;18.00;99.90;;;;;;9617912;23;20208;-90
2023/08/31 17:28:29;;;;;;;5.32;1.40;;;18.00;99.90;;;;;;9616673;23;20647;-90
2023/08/31 17:32:14;;;;;;;1.42;0.85;;;17.60;99.90;;;;;;9617341;23;20154;-90
2023/08/31 17:36:00;;;;;;;1.17;0.80;;;17.40;99.90;;;;;;9616850;23;20197;-90
2023/08/31 17:39:45;;;;;;;1.48;1.13;;;17.50;99.90;;;;;;9616488;23;20166;-90
2023/08/31 17:43:31;;;;;;;0.93;0.60;;;17.50;99.90;;;;;;9616462;23;20165;-90
2023/08/31 17:47:18;;;;;;;2.38;0.82;;;17.60;99.90;;;;;;9615527;23;20248;-90
2023/08/31 17:51:05;;;;;;;0.98;0.80;;;17.70;99.90;;;;;;9616673;23;20648;-89
2023/08/31 17:54:51;;;;;;;1.13;0.88;;;17.50;99.90;;;;;;9626831;22;20166;-89
2023/08/31 17:58:36;;;;;;;1.00;0.88;;;17.50;99.90;;;;;;9654127;22;20201;-89
2023/08/31 18:02:22;;;;;;;2.45;0.90;;;17.50;99.90;;;;;;9618708;23;20178;-90
2023/08/31 18:06:08;;;;;;;0.60;0.60;;;17.60;99.90;;;;;;9615234;23;20237;-89
2023/08/31 18:10:02;;;;;;;1.60;0.82;;;17.70;99.90;;;;;;9640532;23;20529;-90
2023/08/31 18:13:48;;;;;;;2.22;0.85;;;17.80;99.90;;;;;;9615600;23;20149;-89
2023/08/31 18:17:34;;;;;;;1.17;0.70;;;17.70;99.90;;;;;;9642815;23;20662;-90
2023/08/31 18:21:19;;;;;;;0.77;0.77;;;17.70;99.90;;;;;;9617288;23;20180;-90
2023/08/31 18:25:06;;;;;;;1.15;0.90;;;17.70;99.90;;;;;;9615411;23;20229;-90
2023/08/31 18:28:52;;;;;;;4.88;1.00;;;17.70;99.90;;;;;;9614605;23;20189;-90
2023/08/31 18:32:44;;;;;;;1.42;1.00;;;17.60;99.90;;;;;;9615410;23;20194;-90
2023/08/31 18:36:38;;;;;;;2.75;1.20;;;17.50;99.90;;;;;;9613090;23;20614;-90
2023/08/31 18:40:24;;;;;;;1.63;1.40;;;17.50;99.90;;;;;;9614725;23;20159;-90
2023/08/31 18:44:09;;;;;;;2.75;1.58;;;17.50;99.90;;;;;;9616637;23;20176;-90
2023/08/31 18:47:57;;;;;;;2.30;1.30;;;17.50;99.90;;;;;;9620819;23;20252;-90
2023/08/31 18:51:44;;;;;;;1.52;1.35;;;17.40;99.90;;;;;;9615308;23;20640;-90
2023/08/31 18:55:30;;;;;;;1.95;1.60;;;17.40;99.90;;;;;;9614873;23;20222;-90
2023/08/31 18:59:15;;;;;;;2.35;1.60;;;17.30;99.90;;;;;;9614800;23;20161;-90
2023/08/31 19:03:07;;;;;;;5.65;2.50;;;17.40;99.90;;;;;;9614843;23;20169;-90
2023/08/31 19:06:53;;;;;;;5.60;2.65;;;17.30;99.90;;;;;;9613626;23;20186;-90
2023/08/31 19:10:38;;;;;;;4.97;2.70;;;17.30;99.90;;;;;;9612763;23;20169;-90
2023/08/31 19:14:26;;;;;;;2.40;1.80;;;17.20;99.90;;;;;;9612746;23;20512;-91
2023/08/31 19:18:11;;;;;;;2.33;1.60;;;17.20;99.90;;;;;;9613451;23;20204;-90
2023/08/31 19:21:57;;;;;;;1.83;1.27;;;17.20;99.90;;;;;;9643077;22;20158;-91
2023/08/31 19:25:45;;;;;;;2.78;1.17;;;17.20;99.90;;;;;;9612757;23;20536;-90
2023/08/31 19:29:35;;;;;;;1.30;1.15;;;17.20;99.90;;;;;;9615285;23;20233;-90
2023/08/31 19:33:20;;;;;;;2.65;1.38;;;17.00;99.90;;;;;;9613869;23;20224;-90
2023/08/31 19:37:06;;;;;;;2.65;1.20;;;16.90;99.90;;;;;;9613249;23;20204;-90
2023/08/31 19:40:51;;;;;;;1.13;1.02;;;16.90;99.90;;;;;;9613966;23;20185;-90
2023/08/31 19:44:38;;;;;;;1.58;1.13;;;16.80;99.90;;;;;;9643491;22;20165;-89